Aerbrava English version Versión de Aerbrava en Español Versió en Català d'Aerbrava
curve curve
Tuesday, 13 de November de 2018
16:50 UTC
Sunrise: 06:40
Sunset: 16:26

AERONAUTICAL WEATHER

WEATHER INFORMATION

This section shows the meteorological information that is used in the practice of students in the pilot school at our center during training, so it may not be current and should be used at your own risk. AERBRAVA is not responsible for its use.

ACTUAL WEATHER

Servei Meteorològic de Catalunya sat24.com
LEGE 131630Z 04007KT 9999 FEW021 SCT025 17/15 Q1026
LEGE 131600Z 05008KT 9999 FEW021 SCT026 BKN050 18/15 Q1026
LEGE 131530Z 05008KT 9999 SCT025TCU BKN050 18/15 Q1026
LEGE 131500Z 04008KT 9999 SCT020TCU BKN050 19/15 Q1026
LEGE 131430Z 04011KT 9999 SCT020TCU 19/15 Q1025
LEGE 131400Z 04010KT 9999 SCT018TCU 19/15 Q1025
LEGE 131330Z 04010KT 9999 FEW020 BKN050 20/16 Q1025
LEGE 131300Z 03010KT 360V070 9999 FEW020 BKN050 19/15 Q1025
TAF LEGE 131100Z 1312/1412 02011KT 9999 BKN030 TX21/1313Z TN15/1406Z   BECMG 1318/1320 VRB04KT   TEMPO 1323/1408 2000 BR BKN014
National Weather service
logo About us | Site map | Privacy | Contact | © 2018 AERBRAVA, SCP